Time;durP1;ratioP1;P1;durP2;ratioP2;P2;SDS_P1;SDS_P2;PMS_P1;PMS_P2;Temp;Humidity;BMP_temperature;BMP_pressure;BME280_temperature;BME280_humidity;BME280_pressure;Samples;Min_cycle;Max_cycle;Signal;HPM_P1;HPM_P2
2022/11/13 00:00:10;;;;;;;;;;;8.60;82.30;;;;;;5063021;28;20305;-83
2022/11/13 00:02:36;;;;;;;;;;;8.60;81.70;;;;;;5047674;28;19916;-83
2022/11/13 00:05:01;;;;;;;;;;;8.60;81.70;;;;;;5064261;28;19921;-84
2022/11/13 00:07:27;;;;;;;;;;;8.60;81.70;;;;;;5045045;28;20405;-83
2022/11/13 00:09:53;;;;;;;;;;;8.60;81.30;;;;;;5056712;28;19917;-83
2022/11/13 00:12:18;;;;;;;;;;;8.60;80.80;;;;;;5049775;28;19921;-83
2022/11/13 00:14:44;;;;;;;;;;;8.60;80.90;;;;;;5051692;28;20226;-83
2022/11/13 00:17:09;;;;;;;;;;;8.60;81.30;;;;;;5067225;28;19981;-83
2022/11/13 00:19:35;;;;;;;;;;;8.60;80.90;;;;;;5068783;28;20339;-83
2022/11/13 00:22:00;;;;;;;;;;;8.50;80.60;;;;;;5050553;28;19979;-83
2022/11/13 00:24:26;;;;;;;;;;;8.50;80.80;;;;;;5045247;28;20332;-84
2022/11/13 00:26:51;;;;;;;;;;;8.50;80.90;;;;;;5050233;28;20389;-83
2022/11/13 00:29:17;;;;;;;;;;;8.50;81.40;;;;;;5053139;28;19931;-83
2022/11/13 00:31:42;;;;;;;;;;;8.50;80.80;;;;;;5064732;28;19921;-83
2022/11/13 00:34:09;;;;;;;;;;;8.50;80.90;;;;;;5049504;28;20080;-84
2022/11/13 00:36:34;;;;;;;;;;;8.50;81.00;;;;;;5064342;28;20358;-83
2022/11/13 00:38:59;;;;;;;;;;;8.50;80.90;;;;;;5063534;28;19921;-84
2022/11/13 00:41:25;;;;;;;;;;;8.40;81.20;;;;;;5062433;28;19984;-85
2022/11/13 00:43:50;;;;;;;;;;;8.40;81.00;;;;;;5048303;28;20046;-84
2022/11/13 00:46:16;;;;;;;;;;;8.50;80.40;;;;;;5064287;28;19952;-84
2022/11/13 00:48:42;;;;;;;;;;;8.40;80.60;;;;;;5070454;28;20399;-84
2022/11/13 00:51:07;;;;;;;;;;;8.40;80.80;;;;;;5068409;28;19927;-83
2022/11/13 00:53:33;;;;;;;;;;;8.30;80.90;;;;;;5076426;28;19935;-85
2022/11/13 00:55:59;;;;;;;;;;;8.30;80.70;;;;;;5069074;28;19943;-85
2022/11/13 00:58:24;;;;;;;;;;;8.30;80.50;;;;;;5058346;28;19924;-85
2022/11/13 01:00:50;;;;;;;;;;;8.30;80.70;;;;;;5047899;28;19919;-84
2022/11/13 01:03:16;;;;;;;;;;;8.30;80.60;;;;;;5068652;28;20027;-84
2022/11/13 01:05:43;;;;;;;;;;;8.20;80.40;;;;;;5068322;28;19912;-84
2022/11/13 01:08:09;;;;;;;;;;;8.10;80.60;;;;;;5042359;28;20434;-84
2022/11/13 01:10:38;;;;;;;;;;;8.20;81.00;;;;;;5051916;28;19912;-83
2022/11/13 01:13:03;;;;;;;;;;;8.10;80.30;;;;;;5064711;28;19946;-84
2022/11/13 01:15:29;;;;;;;;;;;8.00;80.70;;;;;;5049279;28;19975;-84
2022/11/13 01:17:55;;;;;;;;;;;8.00;80.80;;;;;;5051161;28;19952;-84
2022/11/13 01:20:21;;;;;;;;;;;8.00;80.80;;;;;;5046194;28;20061;-82
2022/11/13 01:22:47;;;;;;;;;;;8.00;80.90;;;;;;5051825;28;20011;-83
2022/11/13 01:25:12;;;;;;;;;;;8.00;80.80;;;;;;5069389;28;19952;-83
2022/11/13 01:27:38;;;;;;;;;;;8.00;80.60;;;;;;5047454;28;19978;-83
2022/11/13 01:30:04;;;;;;;;;;;7.90;80.70;;;;;;5046145;28;19921;-83
2022/11/13 01:32:29;;;;;;;;;;;7.90;80.60;;;;;;5056346;28;19919;-83
2022/11/13 01:34:55;;;;;;;;;;;7.90;81.10;;;;;;5071206;28;19920;-83
2022/11/13 01:37:20;;;;;;;;;;;7.80;80.90;;;;;;5067935;28;19951;-83
2022/11/13 01:39:45;;;;;;;;;;;7.80;81.20;;;;;;5051012;28;19939;-84
2022/11/13 01:42:11;;;;;;;;;;;7.70;81.10;;;;;;5062250;28;19978;-83
2022/11/13 01:44:47;;;;;;;;;;;7.70;80.90;;;;;;5069963;28;19921;-82
2022/11/13 01:47:12;;;;;;;;;;;7.60;80.50;;;;;;5047449;28;20447;-83
2022/11/13 01:49:39;;;;;;;;;;;7.60;80.30;;;;;;5051085;28;19956;-82
2022/11/13 01:52:10;;;;;;;;;;;7.50;80.70;;;;;;5070501;28;19924;-83
2022/11/13 01:54:39;;;;;;;;;;;7.50;81.30;;;;;;5061619;28;20016;-83
2022/11/13 01:57:05;;;;;;;;;;;7.50;82.00;;;;;;5047945;28;20333;-83
2022/11/13 01:59:37;;;;;;;;;;;7.40;81.60;;;;;;5073791;28;19931;-81
2022/11/13 02:02:03;;;;;;;;;;;7.50;81.30;;;;;;5066245;28;19942;-83
2022/11/13 02:04:29;;;;;;;;;;;7.40;81.30;;;;;;5047775;28;19951;-83
2022/11/13 02:06:56;;;;;;;;;;;7.40;81.80;;;;;;5055570;28;19958;-83
2022/11/13 02:09:30;;;;;;;;;;;7.30;81.70;;;;;;5046507;28;19916;-82
2022/11/13 02:11:55;;;;;;;;;;;7.30;81.80;;;;;;5048278;28;19920;-83
2022/11/13 02:14:24;;;;;;;;;;;7.30;81.80;;;;;;5063857;28;19916;-82
2022/11/13 02:16:51;;;;;;;;;;;7.20;81.40;;;;;;5043034;28;19920;-82
2022/11/13 02:19:24;;;;;;;;;;;7.20;81.60;;;;;;5086873;22;19925;-85
2022/11/13 02:21:53;;;;;;;;;;;7.20;81.60;;;;;;5072170;28;19967;-85
2022/11/13 02:24:30;;;;;;;;;;;7.10;81.40;;;;;;5075986;28;19932;-85
2022/11/13 02:26:56;;;;;;;;;;;7.10;82.00;;;;;;5068209;28;20370;-84
2022/11/13 02:29:22;;;;;;;;;;;7.10;82.50;;;;;;5060898;28;19931;-85
2022/11/13 02:31:47;;;;;;;;;;;7.10;81.60;;;;;;5061884;28;19912;-84
2022/11/13 02:34:13;;;;;;;;;;;7.20;81.90;;;;;;5049833;28;19923;-85
2022/11/13 02:36:38;;;;;;;;;;;7.10;81.80;;;;;;5062642;28;19912;-84
2022/11/13 02:39:06;;;;;;;;;;;7.10;82.00;;;;;;5059417;28;20000;-84
2022/11/13 02:41:31;;;;;;;;;;;7.20;82.20;;;;;;5060449;28;19917;-84
2022/11/13 02:43:57;;;;;;;;;;;7.20;82.50;;;;;;5065815;28;20026;-84
2022/11/13 02:46:22;;;;;;;;;;;7.20;82.60;;;;;;5049803;28;20007;-84
2022/11/13 02:48:47;;;;;;;;;;;7.20;82.70;;;;;;5069116;28;19919;-85
2022/11/13 02:51:13;;;;;;;;;;;7.30;82.10;;;;;;5067931;28;20342;-84
2022/11/13 02:53:39;;;;;;;;;;;7.30;82.10;;;;;;5070620;28;20161;-84
2022/11/13 02:56:04;;;;;;;;;;;7.20;81.30;;;;;;5056108;28;20361;-85
2022/11/13 02:58:30;;;;;;;;;;;7.20;81.20;;;;;;5076891;28;19912;-84
2022/11/13 03:00:55;;;;;;;;;;;7.20;81.00;;;;;;5066338;28;20019;-85
2022/11/13 03:03:21;;;;;;;;;;;7.10;81.20;;;;;;5057094;28;19912;-85
2022/11/13 03:05:49;;;;;;;;;;;7.10;81.30;;;;;;5049320;28;19913;-85
2022/11/13 03:08:15;;;;;;;;;;;7.10;81.50;;;;;;5067697;28;19921;-84
2022/11/13 03:10:40;;;;;;;;;;;7.20;81.20;;;;;;5044839;28;20270;-85
2022/11/13 03:13:06;;;;;;;;;;;7.10;81.30;;;;;;5052030;28;19976;-85
2022/11/13 03:15:32;;;;;;;;;;;7.10;81.10;;;;;;5046072;28;19950;-85
2022/11/13 03:18:01;;;;;;;;;;;7.00;81.70;;;;;;5063929;28;19921;-84
2022/11/13 03:20:26;;;;;;;;;;;7.00;81.70;;;;;;5076260;28;20036;-85
2022/11/13 03:22:52;;;;;;;;;;;7.00;82.10;;;;;;5070716;28;20386;-85
2022/11/13 03:25:17;;;;;;;;;;;7.00;81.60;;;;;;5054073;28;19920;-85
2022/11/13 03:27:42;;;;;;;;;;;7.00;81.70;;;;;;5076453;28;19923;-85
2022/11/13 03:30:08;;;;;;;;;;;7.00;81.50;;;;;;5068213;28;19912;-85
2022/11/13 03:32:33;;;;;;;;;;;6.90;81.40;;;;;;5053093;28;19923;-85
2022/11/13 03:34:59;;;;;;;;;;;6.80;81.70;;;;;;5055135;28;20340;-85
2022/11/13 03:37:24;;;;;;;;;;;6.90;81.30;;;;;;5054329;28;19936;-85
2022/11/13 03:39:50;;;;;;;;;;;6.70;81.80;;;;;;5057154;28;20616;-85
2022/11/13 03:42:15;;;;;;;;;;;6.70;81.60;;;;;;5073391;28;20365;-85
2022/11/13 03:44:41;;;;;;;;;;;6.70;82.00;;;;;;5071856;28;20011;-85
2022/11/13 03:47:06;;;;;;;;;;;6.70;81.60;;;;;;5071995;28;20424;-85
2022/11/13 03:49:31;;;;;;;;;;;6.80;81.10;;;;;;5055679;28;19921;-85
2022/11/13 03:51:57;;;;;;;;;;;6.70;81.40;;;;;;5057560;28;19920;-85
2022/11/13 03:54:22;;;;;;;;;;;6.70;81.80;;;;;;5051235;28;19921;-85
2022/11/13 03:56:48;;;;;;;;;;;6.70;81.60;;;;;;5052291;28;19917;-84
2022/11/13 03:59:13;;;;;;;;;;;6.60;81.40;;;;;;5067796;28;19924;-84
2022/11/13 04:01:38;;;;;;;;;;;6.60;81.20;;;;;;5072585;28;20285;-85
2022/11/13 04:04:04;;;;;;;;;;;6.60;81.50;;;;;;5053032;28;20362;-84
2022/11/13 04:06:29;;;;;;;;;;;6.50;81.60;;;;;;5071200;28;19912;-84
2022/11/13 04:08:56;;;;;;;;;;;6.50;81.30;;;;;;5069330;28;19916;-84
2022/11/13 04:11:21;;;;;;;;;;;6.40;81.30;;;;;;5073136;28;19913;-85
2022/11/13 04:13:47;;;;;;;;;;;6.30;81.50;;;;;;5051494;28;20517;-84
2022/11/13 04:16:12;;;;;;;;;;;6.30;81.70;;;;;;5065312;28;20139;-84
2022/11/13 04:18:38;;;;;;;;;;;6.20;81.80;;;;;;5070549;28;19920;-84
2022/11/13 04:21:04;;;;;;;;;;;6.20;82.10;;;;;;5067936;28;19916;-84
2022/11/13 04:23:29;;;;;;;;;;;6.20;82.20;;;;;;5052676;28;19912;-84
2022/11/13 04:25:55;;;;;;;;;;;6.10;82.80;;;;;;5068141;28;20011;-85
2022/11/13 04:28:20;;;;;;;;;;;6.10;82.40;;;;;;5048673;28;19925;-84
2022/11/13 04:30:46;;;;;;;;;;;6.10;82.90;;;;;;5067999;28;19913;-84
2022/11/13 04:33:11;;;;;;;;;;;6.10;82.70;;;;;;5050965;28;19913;-85
2022/11/13 04:35:37;;;;;;;;;;;6.30;82.00;;;;;;5050770;28;19943;-84
2022/11/13 04:38:02;;;;;;;;;;;6.10;82.20;;;;;;5093384;28;19916;-85
2022/11/13 04:40:27;;;;;;;;;;;6.30;82.10;;;;;;5065741;28;19912;-84
2022/11/13 04:42:53;;;;;;;;;;;6.30;81.90;;;;;;5067281;28;19956;-84
2022/11/13 04:45:19;;;;;;;;;;;6.30;82.30;;;;;;5047902;28;19913;-84
2022/11/13 04:47:45;;;;;;;;;;;6.30;82.10;;;;;;5058347;28;19921;-85
2022/11/13 04:50:11;;;;;;;;;;;6.30;82.40;;;;;;5075640;28;19920;-85
2022/11/13 04:52:36;;;;;;;;;;;6.40;82.10;;;;;;5067806;28;19912;-84
2022/11/13 04:55:02;;;;;;;;;;;6.50;81.70;;;;;;5068444;28;19928;-84
2022/11/13 04:57:28;;;;;;;;;;;6.40;81.80;;;;;;5052580;28;19920;-85
2022/11/13 04:59:53;;;;;;;;;;;6.30;81.70;;;;;;5078836;28;20580;-84
2022/11/13 05:02:19;;;;;;;;;;;6.30;81.60;;;;;;5058850;28;19943;-85
2022/11/13 05:04:44;;;;;;;;;;;6.20;81.60;;;;;;5070584;28;19913;-85
2022/11/13 05:07:10;;;;;;;;;;;6.10;82.20;;;;;;5055108;28;19921;-84
2022/11/13 05:09:35;;;;;;;;;;;6.20;82.30;;;;;;5067801;28;20397;-85
2022/11/13 05:12:01;;;;;;;;;;;6.30;81.80;;;;;;5056543;28;20511;-84
2022/11/13 05:14:26;;;;;;;;;;;6.20;81.60;;;;;;5051796;28;19966;-85
2022/11/13 05:16:52;;;;;;;;;;;6.20;81.60;;;;;;5071759;28;20225;-84
2022/11/13 05:19:17;;;;;;;;;;;6.10;81.50;;;;;;5073151;28;19916;-85
2022/11/13 05:21:43;;;;;;;;;;;6.10;82.00;;;;;;5049378;28;19927;-85
2022/11/13 05:24:09;;;;;;;;;;;6.00;82.40;;;;;;5069989;28;19966;-85
2022/11/13 05:26:36;;;;;;;;;;;6.00;82.20;;;;;;5054625;28;19912;-85
2022/11/13 05:29:01;;;;;;;;;;;6.00;82.20;;;;;;5070219;28;19963;-84
2022/11/13 05:31:27;;;;;;;;;;;6.00;82.20;;;;;;5070309;28;19948;-84
2022/11/13 05:33:52;;;;;;;;;;;5.90;82.40;;;;;;5067596;28;19912;-84
2022/11/13 05:36:18;;;;;;;;;;;6.00;81.90;;;;;;5068075;28;19944;-84
2022/11/13 05:38:44;;;;;;;;;;;5.90;82.00;;;;;;5067472;28;19924;-84
2022/11/13 05:41:14;;;;;;;;;;;5.80;82.20;;;;;;5049949;28;19916;-84
2022/11/13 05:43:40;;;;;;;;;;;5.90;82.30;;;;;;5050860;28;19916;-84
2022/11/13 05:46:13;;;;;;;;;;;5.80;82.30;;;;;;5067815;28;19999;-84
2022/11/13 05:48:39;;;;;;;;;;;5.80;82.10;;;;;;5050045;28;19932;-84
2022/11/13 05:51:06;;;;;;;;;;;5.80;82.00;;;;;;5065529;28;20543;-84
2022/11/13 05:53:35;;;;;;;;;;;5.80;81.70;;;;;;5069041;28;20377;-84
2022/11/13 05:56:04;;;;;;;;;;;5.80;82.30;;;;;;5056988;28;19916;-85
2022/11/13 05:58:30;;;;;;;;;;;5.90;82.60;;;;;;5057657;28;20327;-84
2022/11/13 06:01:09;;;;;;;;;;;5.80;82.50;;;;;;5055559;28;19913;-84
2022/11/13 06:03:35;;;;;;;;;;;5.80;83.00;;;;;;5065432;28;19923;-84
2022/11/13 06:06:01;;;;;;;;;;;5.80;83.10;;;;;;5055398;28;20007;-84
2022/11/13 06:08:26;;;;;;;;;;;5.90;83.20;;;;;;5049279;28;19932;-83
2022/11/13 06:10:51;;;;;;;;;;;6.00;82.60;;;;;;5055198;28;19912;-84
2022/11/13 06:13:17;;;;;;;;;;;6.00;82.70;;;;;;5055101;28;19966;-84
2022/11/13 06:15:42;;;;;;;;;;;6.00;82.60;;;;;;5074777;28;19935;-83
2022/11/13 06:18:08;;;;;;;;;;;6.00;82.00;;;;;;5054066;28;19952;-85
2022/11/13 06:20:34;;;;;;;;;;;6.00;81.40;;;;;;5058777;28;19947;-84
2022/11/13 06:23:00;;;;;;;;;;;5.80;81.00;;;;;;5067461;28;19916;-84
2022/11/13 06:25:26;;;;;;;;;;;5.60;82.60;;;;;;5054170;28;19973;-84
2022/11/13 06:27:52;;;;;;;;;;;5.60;82.50;;;;;;5049902;28;19979;-84
2022/11/13 06:30:17;;;;;;;;;;;5.50;83.10;;;;;;5069826;28;20019;-84
2022/11/13 06:32:43;;;;;;;;;;;5.50;82.80;;;;;;5064688;28;20373;-84
2022/11/13 06:35:08;;;;;;;;;;;5.50;82.70;;;;;;5050309;28;19920;-84
2022/11/13 06:37:34;;;;;;;;;;;5.40;82.90;;;;;;5067924;28;19917;-84
2022/11/13 06:39:59;;;;;;;;;;;5.40;82.80;;;;;;5066845;28;19924;-85
2022/11/13 06:42:25;;;;;;;;;;;5.50;82.90;;;;;;5048680;28;20409;-85
2022/11/13 06:44:51;;;;;;;;;;;5.50;82.90;;;;;;5047710;28;19920;-87
2022/11/13 06:47:16;;;;;;;;;;;5.60;82.80;;;;;;5047752;28;20015;-86
2022/11/13 06:49:42;;;;;;;;;;;5.60;83.20;;;;;;5055064;28;19920;-88
2022/11/13 06:52:07;;;;;;;;;;;5.60;83.00;;;;;;5053273;28;20296;-85
2022/11/13 06:54:32;;;;;;;;;;;5.60;83.20;;;;;;5067071;28;19916;-86
2022/11/13 06:56:58;;;;;;;;;;;5.50;82.90;;;;;;5047753;28;19920;-85
2022/11/13 06:59:23;;;;;;;;;;;5.50;83.00;;;;;;5064998;28;19917;-86
2022/11/13 07:01:49;;;;;;;;;;;5.60;82.70;;;;;;5050020;28;19955;-88
2022/11/13 07:04:15;;;;;;;;;;;5.60;82.80;;;;;;5051192;28;20856;-86
2022/11/13 07:06:40;;;;;;;;;;;5.60;82.70;;;;;;5066201;28;20346;-86
2022/11/13 07:09:06;;;;;;;;;;;5.60;82.30;;;;;;5052390;28;20301;-84
2022/11/13 07:11:31;;;;;;;;;;;5.50;82.10;;;;;;5068261;28;19928;-84
2022/11/13 07:13:57;;;;;;;;;;;5.50;82.40;;;;;;5047071;28;20389;-83
2022/11/13 07:16:22;;;;;;;;;;;5.50;82.20;;;;;;5048247;28;20354;-84
2022/11/13 07:18:49;;;;;;;;;;;5.50;82.70;;;;;;5051713;28;19922;-83
2022/11/13 07:21:14;;;;;;;;;;;5.50;83.60;;;;;;5063599;28;19916;-85
2022/11/13 07:23:42;;;;;;;;;;;5.60;82.70;;;;;;5053427;28;20023;-84
2022/11/13 07:26:10;;;;;;;;;;;5.60;82.70;;;;;;5049167;28;19935;-85
2022/11/13 07:28:36;;;;;;;;;;;5.70;82.20;;;;;;5055678;28;19916;-86
2022/11/13 07:31:02;;;;;;;;;;;5.60;82.80;;;;;;5050967;28;19920;-86
2022/11/13 07:33:27;;;;;;;;;;;5.60;82.70;;;;;;5062789;28;20377;-85
2022/11/13 07:35:54;;;;;;;;;;;5.80;82.70;;;;;;5058511;28;19931;-86
2022/11/13 07:38:19;;;;;;;;;;;5.80;82.30;;;;;;5053308;28;20294;-86
2022/11/13 07:40:45;;;;;;;;;;;5.80;82.70;;;;;;5052504;28;19912;-87
2022/11/13 07:43:10;;;;;;;;;;;5.90;82.30;;;;;;5067846;28;19916;-86
2022/11/13 07:45:36;;;;;;;;;;;6.00;82.50;;;;;;5080457;28;19913;-86
2022/11/13 07:48:02;;;;;;;;;;;6.10;82.60;;;;;;5046611;28;19924;-86
2022/11/13 07:50:29;;;;;;;;;;;6.10;82.30;;;;;;5068274;28;19912;-85
2022/11/13 07:52:58;;;;;;;;;;;6.10;82.60;;;;;;5053542;28;19963;-85
2022/11/13 07:55:24;;;;;;;;;;;6.20;82.40;;;;;;5064995;28;19912;-86
2022/11/13 07:57:49;;;;;;;;;;;6.20;81.90;;;;;;5055224;28;19942;-85
2022/11/13 08:00:15;;;;;;;;;;;6.20;82.30;;;;;;5084887;28;20021;-85
2022/11/13 08:02:41;;;;;;;;;;;6.20;82.20;;;;;;5064283;28;19917;-85
2022/11/13 08:05:06;;;;;;;;;;;6.40;82.80;;;;;;5085462;28;19930;-86
2022/11/13 08:07:31;;;;;;;;;;;6.40;82.50;;;;;;5080133;28;19921;-86
2022/11/13 08:09:57;;;;;;;;;;;6.50;82.40;;;;;;5081031;28;20316;-86
2022/11/13 08:12:22;;;;;;;;;;;6.50;82.30;;;;;;5052325;28;19974;-86
2022/11/13 08:14:48;;;;;;;;;;;6.50;82.20;;;;;;5058716;28;19947;-86
2022/11/13 08:17:13;;;;;;;;;;;6.50;82.10;;;;;;5053923;28;20324;-85
2022/11/13 08:19:39;;;;;;;;;;;6.60;82.20;;;;;;5082562;28;19930;-86
2022/11/13 08:22:04;;;;;;;;;;;6.60;81.90;;;;;;5051497;28;19912;-84
2022/11/13 08:24:30;;;;;;;;;;;6.70;81.40;;;;;;5077497;28;19936;-86
2022/11/13 08:26:56;;;;;;;;;;;6.80;81.60;;;;;;5043648;28;19912;-86
2022/11/13 08:29:21;;;;;;;;;;;6.80;81.40;;;;;;5056968;28;19912;-84
2022/11/13 08:31:47;;;;;;;;;;;6.90;81.80;;;;;;5082413;28;19984;-84
2022/11/13 08:34:12;;;;;;;;;;;6.90;81.90;;;;;;5092734;28;19951;-83
2022/11/13 08:36:37;;;;;;;;;;;6.90;82.20;;;;;;5075354;28;19912;-87
2022/11/13 08:39:03;;;;;;;;;;;7.00;82.80;;;;;;5049687;28;19916;-88
2022/11/13 08:41:28;;;;;;;;;;;7.10;82.80;;;;;;5065067;28;19908;-84
2022/11/13 08:43:54;;;;;;;;;;;7.10;82.70;;;;;;5076066;28;19920;-84
2022/11/13 08:46:19;;;;;;;;;;;7.10;82.70;;;;;;5058634;28;19912;-83
2022/11/13 08:48:45;;;;;;;;;;;7.20;82.80;;;;;;5075839;28;19962;-83
2022/11/13 08:51:10;;;;;;;;;;;7.30;82.50;;;;;;5077726;28;19980;-83
2022/11/13 08:53:35;;;;;;;;;;;7.30;82.30;;;;;;5074881;28;19944;-83
2022/11/13 08:56:01;;;;;;;;;;;7.30;81.90;;;;;;5077871;28;19916;-83
2022/11/13 08:58:27;;;;;;;;;;;7.40;82.10;;;;;;5058433;28;19912;-83
2022/11/13 09:00:57;;;;;;;;;;;7.50;82.30;;;;;;5076782;28;20365;-84
2022/11/13 09:03:23;;;;;;;;;;;7.60;82.30;;;;;;5070001;28;20000;-84
2022/11/13 09:05:48;;;;;;;;;;;7.60;82.30;;;;;;5064908;28;20367;-84
2022/11/13 09:08:14;;;;;;;;;;;7.60;82.10;;;;;;5082186;28;19916;-84
2022/11/13 09:10:39;;;;;;;;;;;7.80;81.70;;;;;;5061598;28;20490;-84
2022/11/13 09:13:05;;;;;;;;;;;7.80;81.90;;;;;;5050530;28;19913;-84
2022/11/13 09:15:31;;;;;;;;;;;7.80;81.70;;;;;;5049623;28;19961;-84
2022/11/13 09:17:57;;;;;;;;;;;7.90;81.70;;;;;;5057770;28;19921;-85
2022/11/13 09:20:32;;;;;;;;;;;7.90;80.50;;;;;;5055630;28;19917;-87
2022/11/13 09:22:58;;;;;;;;;;;8.20;76.90;;;;;;5071507;28;19931;-83
2022/11/13 09:25:24;;;;;;;;;;;8.50;74.40;;;;;;5068964;28;19966;-82
2022/11/13 09:27:57;;;;;;;;;;;8.60;74.60;;;;;;5073550;28;19921;-83
2022/11/13 09:30:23;;;;;;;;;;;8.70;75.70;;;;;;5057757;28;19943;-83
2022/11/13 09:32:51;;;;;;;;;;;8.80;76.10;;;;;;5054485;28;19912;-83
2022/11/13 09:35:32;;;;;;;;;;;8.70;76.30;;;;;;5066782;28;19995;-84
2022/11/13 09:38:02;;;;;;;;;;;8.80;76.60;;;;;;5081137;28;19938;-84
2022/11/13 09:40:33;;;;;;;;;;;8.90;76.80;;;;;;5056358;28;19939;-85
2022/11/13 09:43:02;;;;;;;;;;;9.00;76.70;;;;;;5074889;28;19912;-85
2022/11/13 09:45:31;;;;;;;;;;;9.00;76.80;;;;;;5054452;28;19920;-86
2022/11/13 09:48:09;;;;;;;;;;;9.00;77.30;;;;;;5058159;28;19917;-86
2022/11/13 09:50:35;;;;;;;;;;;9.10;77.70;;;;;;5090406;28;20389;-84
2022/11/13 09:53:02;;;;;;;;;;;9.10;77.70;;;;;;5079581;28;19927;-85
2022/11/13 09:55:32;;;;;;;;;;;9.10;77.70;;;;;;5059928;28;20003;-85
2022/11/13 09:58:14;;;;;;;;;;;9.20;77.90;;;;;;5072248;28;19913;-87
2022/11/13 10:00:39;;;;;;;;;;;9.30;77.70;;;;;;5078996;28;19972;-85
2022/11/13 10:03:08;;;;;;;;;;;9.30;77.30;;;;;;5072643;28;19928;-86
2022/11/13 10:05:49;;;;;;;;;;;9.40;76.80;;;;;;5052672;28;20262;-86
2022/11/13 10:08:17;;;;;;;;;;;9.50;77.10;;;;;;5069988;28;19924;-84
2022/11/13 10:11:00;;;;;;;;;;;9.60;77.20;;;;;;5063138;28;20580;-85
2022/11/13 10:13:28;;;;;;;;;;;9.60;76.50;;;;;;5070128;28;19966;-83
2022/11/13 10:15:58;;;;;;;;;;;9.60;75.80;;;;;;5068366;28;19912;-84
2022/11/13 10:18:27;;;;;;;;;;;9.70;75.60;;;;;;5068857;28;19980;-85
2022/11/13 10:20:56;;;;;;;;;;;9.80;73.10;;;;;;5052755;28;19916;-85
2022/11/13 10:23:25;;;;;;;;;;;10.00;70.60;;;;;;5052165;28;19913;-85
2022/11/13 10:25:51;;;;;;;;;;;10.10;69.80;;;;;;5064556;28;20398;-85
2022/11/13 10:28:18;;;;;;;;;;;10.30;68.90;;;;;;5052601;28;20297;-88
2022/11/13 10:30:44;;;;;;;;;;;10.50;67.70;;;;;;5071422;28;20025;-88
2022/11/13 10:33:12;;;;;;;;;;;10.70;66.60;;;;;;5046337;28;19920;-83
2022/11/13 10:35:37;;;;;;;;;;;10.80;66.40;;;;;;5043329;28;19954;-84
2022/11/13 10:38:06;;;;;;;;;;;11.00;66.20;;;;;;5053648;28;19971;-83
2022/11/13 10:40:32;;;;;;;;;;;11.10;66.10;;;;;;5050927;28;20632;-84
2022/11/13 10:43:04;;;;;;;;;;;11.10;65.10;;;;;;5062145;28;19955;-83
2022/11/13 10:45:29;;;;;;;;;;;11.20;64.90;;;;;;5065639;28;20552;-84
2022/11/13 10:47:55;;;;;;;;;;;11.40;65.50;;;;;;5049129;28;19916;-83
2022/11/13 10:50:25;;;;;;;;;;;11.60;64.80;;;;;;5048945;28;20386;-83
2022/11/13 10:52:52;;;;;;;;;;;11.80;66.10;;;;;;5067184;28;19992;-83
2022/11/13 10:55:21;;;;;;;;;;;11.90;65.60;;;;;;5047720;28;20289;-84
2022/11/13 10:57:57;;;;;;;;;;;12.00;65.60;;;;;;5053627;28;19948;-82
2022/11/13 11:00:22;;;;;;;;;;;12.20;64.60;;;;;;5062902;28;19928;-83
2022/11/13 11:02:49;;;;;;;;;;;12.30;64.90;;;;;;5049502;28;19950;-84
2022/11/13 11:05:22;;;;;;;;;;;12.50;62.80;;;;;;5046458;28;19917;-84
2022/11/13 11:07:47;;;;;;;;;;;12.40;62.60;;;;;;5047660;28;19916;-84
2022/11/13 11:10:21;;;;;;;;;;;12.50;64.50;;;;;;5068783;28;19913;-83
2022/11/13 11:12:50;;;;;;;;;;;12.60;63.90;;;;;;5050022;28;20008;-83
2022/11/13 11:15:27;;;;;;;;;;;12.80;62.00;;;;;;5069320;28;19916;-84
2022/11/13 11:17:58;;;;;;;;;;;13.00;61.00;;;;;;5060589;28;20367;-83
2022/11/13 11:20:37;;;;;;;;;;;13.00;61.50;;;;;;5073111;28;20420;-83
2022/11/13 11:23:14;;;;;;;;;;;12.80;61.70;;;;;;5052963;28;19912;-83
2022/11/13 11:25:42;;;;;;;;;;;12.70;63.00;;;;;;5053723;28;19962;-83
2022/11/13 11:28:16;;;;;;;;;;;12.80;63.20;;;;;;5054149;28;19948;-84
2022/11/13 11:30:46;;;;;;;;;;;12.90;63.50;;;;;;5051990;28;20208;-84
2022/11/13 11:33:16;;;;;;;;;;;13.20;64.00;;;;;;5054620;28;19920;-83
2022/11/13 11:35:48;;;;;;;;;;;13.50;63.00;;;;;;5070464;28;19959;-84
2022/11/13 11:38:17;;;;;;;;;;;13.70;62.40;;;;;;5051876;28;20378;-84
2022/11/13 11:40:45;;;;;;;;;;;13.90;59.40;;;;;;5052932;28;19936;-83
2022/11/13 11:43:23;;;;;;;;;;;14.10;59.50;;;;;;5068805;28;19920;-83
2022/11/13 11:45:49;;;;;;;;;;;14.10;60.20;;;;;;5048975;28;19920;-83
2022/11/13 11:48:18;;;;;;;;;;;14.00;60.00;;;;;;5062897;28;20373;-83
2022/11/13 11:50:48;;;;;;;;;;;13.90;60.60;;;;;;5052507;28;20286;-82
2022/11/13 11:53:14;;;;;;;;;;;13.80;60.20;;;;;;5045114;28;19916;-82
2022/11/13 11:55:48;;;;;;;;;;;13.80;59.50;;;;;;5053463;28;19913;-82
2022/11/13 11:58:32;;;;;;;;;;;13.80;60.00;;;;;;5068950;28;19912;-82
2022/11/13 12:01:09;;;;;;;;;;;13.90;60.10;;;;;;5050326;28;19940;-82
2022/11/13 12:03:34;;;;;;;;;;;13.90;60.20;;;;;;5049971;28;19928;-80
2022/11/13 12:06:23;;;;;;;;;;;13.70;60.80;;;;;;5050866;28;20289;-82
2022/11/13 12:08:54;;;;;;;;;;;13.60;61.10;;;;;;5046521;28;19953;-82
2022/11/13 12:11:33;;;;;;;;;;;13.60;61.30;;;;;;5073185;28;19913;-82
2022/11/13 12:14:03;;;;;;;;;;;13.60;61.50;;;;;;5066198;28;19921;-81
2022/11/13 12:16:28;;;;;;;;;;;13.80;61.30;;;;;;5054672;28;19913;-82
2022/11/13 12:19:02;;;;;;;;;;;13.90;60.20;;;;;;5052708;28;20350;-82
2022/11/13 12:21:47;;;;;;;;;;;13.90;60.20;;;;;;5049526;28;19917;-81
2022/11/13 12:24:30;;;;;;;;;;;13.90;59.30;;;;;;5067507;28;19912;-82
2022/11/13 12:26:55;;;;;;;;;;;14.20;59.80;;;;;;5072067;28;20029;-81
2022/11/13 12:29:35;;;;;;;;;;;14.30;59.00;;;;;;5068331;28;19913;-82
2022/11/13 12:32:23;;;;;;;;;;;14.40;58.40;;;;;;5069534;28;19916;-82
2022/11/13 12:34:58;;;;;;;;;;;14.30;58.80;;;;;;5047761;28;19936;-82
2022/11/13 12:37:29;;;;;;;;;;;14.30;59.90;;;;;;5054380;28;20038;-82
2022/11/13 12:39:59;;;;;;;;;;;14.40;58.70;;;;;;5055775;28;19912;-82
2022/11/13 12:42:45;;;;;;;;;;;14.70;57.20;;;;;;5071575;28;19999;-82
2022/11/13 12:45:15;;;;;;;;;;;14.70;58.00;;;;;;5054144;28;19935;-82
2022/11/13 12:47:42;;;;;;;;;;;14.60;57.30;;;;;;5051091;28;20400;-82
2022/11/13 12:50:19;;;;;;;;;;;14.60;57.00;;;;;;5071010;28;19923;-82
2022/11/13 12:52:56;;;;;;;;;;;14.60;56.60;;;;;;5052559;28;19916;-82
2022/11/13 12:55:26;;;;;;;;;;;14.70;57.00;;;;;;5067629;28;19944;-82
2022/11/13 12:57:52;;;;;;;;;;;14.60;57.60;;;;;;5049601;28;19983;-82
2022/11/13 13:00:22;;;;;;;;;;;14.60;56.50;;;;;;5071599;28;20010;-82
2022/11/13 13:02:47;;;;;;;;;;;14.80;56.20;;;;;;5070355;28;20393;-82
2022/11/13 13:05:22;;;;;;;;;;;14.80;56.90;;;;;;5062296;28;19924;-81
2022/11/13 13:07:51;;;;;;;;;;;14.80;56.60;;;;;;5069233;28;19917;-82
2022/11/13 13:10:40;;;;;;;;;;;14.90;55.30;;;;;;5074365;28;20374;-81
2022/11/13 13:13:18;;;;;;;;;;;15.00;55.50;;;;;;5024168;28;19923;-82
2022/11/13 13:16:05;;;;;;;;;;;14.90;55.80;;;;;;5054008;28;20418;-82
2022/11/13 13:18:32;;;;;;;;;;;14.80;56.80;;;;;;5060683;28;20027;-81
2022/11/13 13:21:06;;;;;;;;;;;14.60;57.30;;;;;;5083342;28;19919;-82
2022/11/13 13:23:35;;;;;;;;;;;14.60;58.20;;;;;;5069773;28;19920;-83
2022/11/13 13:26:01;;;;;;;;;;;14.60;56.20;;;;;;5070683;28;19919;-82
2022/11/13 13:28:27;;;;;;;;;;;14.70;55.20;;;;;;5067676;28;19916;-82
2022/11/13 13:31:01;;;;;;;;;;;14.70;56.20;;;;;;5049415;28;20000;-82
2022/11/13 13:33:36;;;;;;;;;;;14.60;56.20;;;;;;5045907;28;19920;-82
2022/11/13 13:36:07;;;;;;;;;;;14.60;55.60;;;;;;5065244;28;19913;-82
2022/11/13 13:39:05;;;;;;;;;;;14.60;55.30;;;;;;5063497;28;19947;-82
2022/11/13 13:41:38;;;;;;;;;;;14.90;54.80;;;;;;5020158;28;19913;-83
2022/11/13 13:44:23;;;;;;;;;;;14.90;54.90;;;;;;5086840;28;19916;-81
2022/11/13 13:46:49;;;;;;;;;;;14.90;54.40;;;;;;5082184;28;19955;-82
2022/11/13 13:49:17;;;;;;;;;;;15.00;55.00;;;;;;5058743;28;20381;-82
2022/11/13 13:51:44;;;;;;;;;;;14.90;55.70;;;;;;5049693;28;19967;-81
2022/11/13 13:54:14;;;;;;;;;;;14.80;55.20;;;;;;5055103;28;19919;-83
2022/11/13 13:56:40;;;;;;;;;;;14.90;55.20;;;;;;5052742;28;20408;-81
2022/11/13 13:59:13;;;;;;;;;;;14.70;56.40;;;;;;5054250;28;19912;-82
2022/11/13 14:01:39;;;;;;;;;;;14.60;56.50;;;;;;5051818;28;19916;-82
2022/11/13 14:04:17;;;;;;;;;;;14.80;55.80;;;;;;5054959;28;19916;-82
2022/11/13 14:06:55;;;;;;;;;;;14.60;56.30;;;;;;5066191;28;20860;-82
2022/11/13 14:09:22;;;;;;;;;;;14.60;56.70;;;;;;5051240;28;20389;-82
2022/11/13 14:12:00;;;;;;;;;;;14.60;57.20;;;;;;5067525;28;20273;-83
2022/11/13 14:14:26;;;;;;;;;;;14.80;55.40;;;;;;5066980;28;20286;-82
2022/11/13 14:16:52;;;;;;;;;;;14.80;55.40;;;;;;5081113;28;19919;-82
2022/11/13 14:19:18;;;;;;;;;;;14.80;54.30;;;;;;5052581;28;19962;-83
2022/11/13 14:21:44;;;;;;;;;;;14.80;53.40;;;;;;5061630;28;19918;-83
2022/11/13 14:24:14;;;;;;;;;;;14.80;54.20;;;;;;5049089;28;19919;-82
2022/11/13 14:26:39;;;;;;;;;;;14.80;52.30;;;;;;5048815;28;20061;-82
2022/11/13 14:29:05;;;;;;;;;;;14.70;54.30;;;;;;5064360;28;20402;-81